createdAt,value
2022-08-28T00:01:15.635Z,98114.94
2022-08-28T00:06:20.052Z,98105.72
2022-08-28T00:11:25.869Z,98108.94
2022-08-28T00:16:30.442Z,98108.66
2022-08-28T00:21:37.165Z,98100.41
2022-08-28T00:27:00.441Z,98104.34
2022-08-28T00:32:05.735Z,98092.84
2022-08-28T00:37:10.197Z,98103.16
2022-08-28T00:42:15.892Z,98104.84
2022-08-28T00:47:20.771Z,98105.31
2022-08-28T00:52:27.596Z,98109.06
2022-08-28T00:57:38.546Z,98104.31
2022-08-28T01:02:43.903Z,98092.13
2022-08-28T01:07:50.939Z,98094.66
2022-08-28T01:12:58.024Z,98103.03
2022-08-28T01:18:08.519Z,98100.78
2022-08-28T01:23:26.060Z,98089.34
2022-08-28T01:28:32.463Z,98090.06
2022-08-28T01:33:37.015Z,98093.22
2022-08-28T01:38:50.721Z,98088.41
2022-08-28T01:43:57.238Z,98085.69
2022-08-28T01:49:01.851Z,98080.06
2022-08-28T01:54:07.748Z,98080.97
2022-08-28T01:59:16.453Z,98084.56
2022-08-28T02:04:21.195Z,98079.69
2022-08-28T02:09:36.548Z,98083.72
2022-08-28T02:14:43.335Z,98074.78
2022-08-28T02:19:47.776Z,98089.09
2022-08-28T02:24:52.244Z,98084.53
2022-08-28T02:29:58.760Z,98092.84
2022-08-28T02:35:03.332Z,98098.94
2022-08-28T02:40:14.399Z,98106.38
2022-08-28T02:45:21.835Z,98110.75
2022-08-28T02:50:26.826Z,98105.94
2022-08-28T02:55:34.164Z,98100.53
2022-08-28T03:00:42.037Z,98103.09
2022-08-28T03:05:46.623Z,98095.28
2022-08-28T03:10:51.336Z,98094.88
2022-08-28T03:15:58.712Z,98099.00
2022-08-28T03:21:03.258Z,98103.72
2022-08-28T03:26:11.409Z,98103.75
2022-08-28T03:31:21.480Z,98114.28
2022-08-28T03:36:29.155Z,98103.03
2022-08-28T03:41:34.861Z,98112.16
2022-08-28T03:46:40.867Z,98116.44
2022-08-28T03:51:45.267Z,98108.75
2022-08-28T03:56:49.737Z,98105.75
2022-08-28T04:01:55.552Z,98122.69
2022-08-28T04:07:01.469Z,98113.72
2022-08-28T04:12:09.411Z,98116.88
2022-08-28T04:17:15.145Z,98116.31
2022-08-28T04:22:20.070Z,98116.03
2022-08-28T04:27:28.263Z,98115.00
2022-08-28T04:32:35.425Z,98110.59
2022-08-28T04:37:40.673Z,98118.44
2022-08-28T04:42:47.540Z,98131.72
2022-08-28T04:47:53.732Z,98124.84
2022-08-28T04:52:58.421Z,98124.72
2022-08-28T04:58:02.985Z,98134.84
2022-08-28T05:03:11.368Z,98129.13
2022-08-28T05:08:19.398Z,98139.41
2022-08-28T05:13:27.228Z,98144.09
2022-08-28T05:18:33.328Z,98145.09
2022-08-28T05:23:37.699Z,98149.50
2022-08-28T05:28:42.283Z,98161.25
2022-08-28T05:33:49.849Z,98171.25
2022-08-28T05:38:59.042Z,98175.91
2022-08-28T05:44:07.751Z,98184.78
2022-08-28T05:49:15.741Z,98173.94
2022-08-28T05:54:20.621Z,98172.50
2022-08-28T05:59:25.489Z,98174.91
2022-08-28T06:04:31.631Z,98183.22
2022-08-28T06:09:38.248Z,98178.72
2022-08-28T06:14:42.682Z,98180.69
2022-08-28T06:19:50.552Z,98191.38
2022-08-28T06:24:55.042Z,98187.34
2022-08-28T06:29:59.988Z,98190.91
2022-08-28T06:35:07.016Z,98187.88
2022-08-28T06:40:11.878Z,98190.69
2022-08-28T06:45:16.437Z,98198.16
2022-08-28T06:50:22.564Z,98201.84
2022-08-28T06:55:27.118Z,98196.59
2022-08-28T07:00:32.069Z,98209.44
2022-08-28T07:05:38.040Z,98203.50
2022-08-28T07:10:42.777Z,98201.53
2022-08-28T07:15:49.281Z,98205.31
2022-08-28T07:21:00.468Z,98207.94
2022-08-28T07:26:06.836Z,98216.22
2022-08-28T07:31:15.465Z,98224.84
2022-08-28T07:36:29.298Z,98218.53
2022-08-28T07:41:38.998Z,98226.38
2022-08-28T07:46:45.267Z,98233.88
2022-08-28T07:51:53.831Z,98244.59
2022-08-28T07:56:59.623Z,98234.84
2022-08-28T08:02:04.631Z,98235.50
2022-08-28T08:07:14.371Z,98244.53
2022-08-28T08:12:18.870Z,98249.28
2022-08-28T08:17:23.563Z,98255.56
2022-08-28T08:22:29.398Z,98249.53
2022-08-28T08:27:38.779Z,98250.25
2022-08-28T08:32:45.426Z,98251.66
2022-08-28T08:37:51.289Z,98254.63
2022-08-28T08:42:58.084Z,98258.53
2022-08-28T08:48:03.405Z,98253.94
2022-08-28T08:53:32.597Z,98255.84
2022-08-28T08:58:44.350Z,98257.28
2022-08-28T09:04:08.479Z,98260.47
2022-08-28T09:09:29.385Z,98256.38
2022-08-28T09:14:55.328Z,98253.06
2022-08-28T09:20:00.680Z,98253.16
2022-08-28T09:25:13.571Z,98257.84
2022-08-28T09:30:31.809Z,98254.47
2022-08-28T09:35:38.661Z,98252.03
2022-08-28T09:41:02.493Z,98256.47
2022-08-28T09:54:46.944Z,98251.81
2022-08-28T10:00:31.824Z,98242.72
2022-08-28T10:05:45.333Z,98243.72
2022-08-28T10:25:54.165Z,98219.47
2022-08-28T10:39:07.693Z,98228.47
2022-08-28T10:45:31.127Z,98227.44
2022-08-28T10:51:17.163Z,98221.38
2022-08-28T10:56:27.416Z,98217.28
2022-08-28T11:01:37.943Z,98221.00
2022-08-28T11:06:51.152Z,98208.19
2022-08-28T11:12:02.045Z,98212.09
2022-08-28T11:17:14.334Z,98217.03
2022-08-28T11:28:47.286Z,98206.63
2022-08-28T11:33:55.512Z,98205.03
2022-08-28T11:39:20.553Z,98210.25
2022-08-28T11:44:41.500Z,98197.19
2022-08-28T11:49:47.577Z,98199.25
2022-08-28T11:55:08.513Z,98191.09
2022-08-28T12:00:23.600Z,98186.63
2022-08-28T12:05:46.788Z,98199.56
2022-08-28T12:12:48.431Z,98194.50
2022-08-28T12:19:05.268Z,98196.81
2022-08-28T12:24:24.808Z,98189.91
2022-08-28T12:29:36.399Z,98190.66
2022-08-28T12:35:07.555Z,98187.50
2022-08-28T12:40:23.284Z,98180.59
2022-08-28T12:45:35.201Z,98177.47
2022-08-28T12:50:41.405Z,98172.25
2022-08-28T12:55:48.165Z,98173.63
2022-08-28T13:00:59.792Z,98166.41
2022-08-28T13:06:09.314Z,98170.41
2022-08-28T13:11:20.533Z,98160.38
2022-08-28T13:16:41.989Z,98162.47
2022-08-28T13:22:00.390Z,98154.44
2022-08-28T13:27:18.973Z,98151.91
2022-08-28T13:32:24.387Z,98147.91
2022-08-28T13:37:48.404Z,98149.53
2022-08-28T13:43:01.340Z,98142.41
2022-08-28T13:48:06.413Z,98142.75
2022-08-28T13:53:11.321Z,98139.88
2022-08-28T13:58:19.037Z,98126.31
2022-08-28T14:03:39.191Z,98131.44
2022-08-28T14:08:45.258Z,98128.00
2022-08-28T14:13:55.515Z,98119.78
2022-08-28T14:19:04.657Z,98122.50
2022-08-28T14:24:09.788Z,98114.44
2022-08-28T14:29:19.878Z,98116.44
2022-08-28T14:34:29.363Z,98112.31
2022-08-28T14:39:34.999Z,98116.75
2022-08-28T14:44:44.988Z,98112.84
2022-08-28T14:49:49.282Z,98106.19
2022-08-28T14:54:53.609Z,98111.28
2022-08-28T14:59:59.205Z,98104.72
2022-08-28T15:05:03.585Z,98092.00
2022-08-28T15:10:11.509Z,98092.44
2022-08-28T15:15:18.642Z,98090.75
2022-08-28T15:20:23.713Z,98090.94
2022-08-28T15:25:28.124Z,98087.66
2022-08-28T15:30:34.702Z,98085.06
2022-08-28T15:35:39.239Z,98088.13
2022-08-28T15:41:00.921Z,98092.53
2022-08-28T15:46:14.454Z,98078.81
2022-08-28T15:51:23.886Z,98080.69
2022-08-28T15:56:30.160Z,98072.78
2022-08-28T16:01:35.884Z,98073.13
2022-08-28T16:06:41.781Z,98078.22
2022-08-28T16:11:46.139Z,98080.47
2022-08-28T16:16:51.731Z,98080.31
2022-08-28T16:21:57.372Z,98069.63
2022-08-28T16:27:01.810Z,98069.41
2022-08-28T16:32:09.753Z,98070.44
2022-08-28T16:37:20.960Z,98077.00
2022-08-28T16:42:28.654Z,98070.72
2022-08-28T16:47:37.960Z,98080.00
2022-08-28T16:52:42.299Z,98058.44
2022-08-28T16:57:46.649Z,98067.53
2022-08-28T17:02:52.415Z,98062.50
2022-08-28T17:07:59.974Z,98071.09
2022-08-28T17:13:04.369Z,98073.19
2022-08-28T17:18:12.893Z,98066.63
2022-08-28T17:23:17.996Z,98074.19
2022-08-28T17:28:22.799Z,98080.13
2022-08-28T17:33:28.786Z,98075.31
2022-08-28T17:38:33.357Z,98075.19
2022-08-28T17:44:08.547Z,98090.25
2022-08-28T17:50:34.995Z,98091.66
2022-08-28T18:02:36.225Z,98102.47
2022-08-28T18:07:42.206Z,98109.22
2022-08-28T18:12:47.752Z,98098.50
2022-08-28T18:17:52.147Z,98112.28
2022-08-28T18:22:57.932Z,98115.13
2022-08-28T18:28:03.148Z,98127.41
2022-08-28T18:33:08.785Z,98129.31
2022-08-28T18:38:16.642Z,98136.88
2022-08-28T18:43:22.458Z,98147.31
2022-08-28T18:48:27.014Z,98148.47
2022-08-28T18:53:32.906Z,98151.06
2022-08-28T18:58:37.346Z,98162.31
2022-08-28T19:03:41.569Z,98164.19
2022-08-28T19:08:47.299Z,98172.50
2022-08-28T19:13:52.165Z,98178.56
2022-08-28T19:18:56.642Z,98178.19
2022-08-28T19:24:04.505Z,98182.03
2022-08-28T19:29:09.047Z,98195.06
2022-08-28T19:34:14.266Z,98197.47
2022-08-28T19:39:20.297Z,98207.19
2022-08-28T19:44:24.595Z,98202.66
2022-08-28T19:49:29.700Z,98215.78
2022-08-28T19:54:38.502Z,98217.66
2022-08-28T19:59:43.298Z,98222.56
2022-08-28T20:04:49.589Z,98226.81
2022-08-28T20:09:56.410Z,98233.59
2022-08-28T20:15:03.749Z,98243.75
2022-08-28T20:20:10.465Z,98245.75
2022-08-28T20:25:18.567Z,98251.97
2022-08-28T20:30:23.329Z,98254.09
2022-08-28T20:35:28.046Z,98259.50
2022-08-28T20:40:34.204Z,98264.56
2022-08-28T20:45:38.771Z,98263.72
2022-08-28T20:50:43.266Z,98272.69
2022-08-28T20:55:50.570Z,98269.69
2022-08-28T21:00:59.401Z,98289.75
2022-08-28T21:06:04.066Z,98280.94
2022-08-28T21:11:09.939Z,98298.06
2022-08-28T21:16:16.066Z,98294.53
2022-08-28T21:21:21.065Z,98294.31
2022-08-28T21:26:28.431Z,98296.25
2022-08-28T21:31:33.130Z,98294.84
2022-08-28T21:36:39.100Z,98304.25
2022-08-28T21:41:44.960Z,98304.97
2022-08-28T21:46:49.315Z,98297.72
2022-08-28T21:51:53.830Z,98296.03
2022-08-28T21:57:00.916Z,98297.66
2022-08-28T22:02:06.163Z,98295.56
2022-08-28T22:07:12.034Z,98291.59
2022-08-28T22:12:17.681Z,98295.34
2022-08-28T22:17:22.013Z,98292.25
2022-08-28T22:22:44.168Z,98293.78
2022-08-28T22:27:49.881Z,98282.91
2022-08-28T22:32:54.784Z,98290.06
2022-08-28T22:37:59.331Z,98310.66
2022-08-28T22:43:05.201Z,98299.50
2022-08-28T22:48:10.285Z,98313.50
2022-08-28T22:53:16.935Z,98310.59
2022-08-28T22:58:22.688Z,98319.75
2022-08-28T23:03:27.359Z,98322.28
2022-08-28T23:08:33.984Z,98323.13
2022-08-28T23:13:41.119Z,98321.97
2022-08-28T23:19:07.334Z,98319.06
2022-08-28T23:24:10.440Z,98324.03
2022-08-28T23:29:16.351Z,98325.56
2022-08-28T23:34:20.908Z,98319.00
2022-08-28T23:39:25.454Z,98320.78
2022-08-28T23:44:34.065Z,98316.78
2022-08-28T23:49:42.832Z,98308.19
2022-08-28T23:54:47.593Z,98306.16
2022-08-28T23:59:53.491Z,98311.84
